sensor_id;sensor_type;location;lat;lon;timestamp;pressure;altitude;pressure_sealevel;temperature;humidity
11347;BME280;5728;42.722;23.258;2023-02-23T00:00:50;94610.94;;;6.38;78.34
11347;BME280;5728;42.722;23.258;2023-02-23T00:03:18;94611.84;;;5.99;80.43
11347;BME280;5728;42.722;23.258;2023-02-23T00:05:45;94602.41;;;5.88;80.73
11347;BME280;5728;42.722;23.258;2023-02-23T00:08:12;94610.09;;;5.77;81.77
11347;BME280;5728;42.722;23.258;2023-02-23T00:10:39;94607.53;;;5.83;81.28
11347;BME280;5728;42.722;23.258;2023-02-23T00:13:05;94612.69;;;5.75;82.29
11347;BME280;5728;42.722;23.258;2023-02-23T00:15:35;94604.13;;;5.92;81.31
11347;BME280;5728;42.722;23.258;2023-02-23T00:18:02;94619.53;;;5.82;80.84
11347;BME280;5728;42.722;23.258;2023-02-23T00:20:30;94612.72;;;5.85;81.22
11347;BME280;5728;42.722;23.258;2023-02-23T00:22:57;94621.28;;;6.14;80.75
11347;BME280;5728;42.722;23.258;2023-02-23T00:25:24;94628.09;;;6.36;80.76
11347;BME280;5728;42.722;23.258;2023-02-23T00:27:51;94616.91;;;6.54;80.18
11347;BME280;5728;42.722;23.258;2023-02-23T00:30:19;94621.09;;;6.80;78.65
11347;BME280;5728;42.722;23.258;2023-02-23T00:32:46;94614.22;;;6.88;78.07
11347;BME280;5728;42.722;23.258;2023-02-23T00:35:14;94619.31;;;7.00;77.34
11347;BME280;5728;42.722;23.258;2023-02-23T00:37:46;94620.16;;;7.02;77.31
11347;BME280;5728;42.722;23.258;2023-02-23T00:40:14;94612.25;;;7.36;76.61
11347;BME280;5728;42.722;23.258;2023-02-23T00:42:43;94618.25;;;7.39;75.79
11347;BME280;5728;42.722;23.258;2023-02-23T00:45:10;94617.38;;;7.45;75.91
11347;BME280;5728;42.722;23.258;2023-02-23T00:47:38;94611.31;;;7.46;75.68
11347;BME280;5728;42.722;23.258;2023-02-23T00:50:07;94618.28;;;7.36;76.65
11347;BME280;5728;42.722;23.258;2023-02-23T00:52:37;94603.84;;;7.03;78.56
11347;BME280;5728;42.722;23.258;2023-02-23T00:55:07;94614.13;;;7.10;78.80
11347;BME280;5728;42.722;23.258;2023-02-23T00:57:34;94614.94;;;7.13;78.84
11347;BME280;5728;42.722;23.258;2023-02-23T01:00:02;94621.00;;;7.07;79.12
11347;BME280;5728;42.722;23.258;2023-02-23T01:02:37;94619.31;;;6.97;80.00
11347;BME280;5728;42.722;23.258;2023-02-23T01:05:05;94621.03;;;6.95;79.63
11347;BME280;5728;42.722;23.258;2023-02-23T01:07:32;94617.63;;;6.90;80.72
11347;BME280;5728;42.722;23.258;2023-02-23T01:09:59;94625.31;;;7.02;80.36
11347;BME280;5728;42.722;23.258;2023-02-23T01:12:27;94622.78;;;6.90;80.48
11347;BME280;5728;42.722;23.258;2023-02-23T01:14:53;94619.34;;;6.91;80.79
11347;BME280;5728;42.722;23.258;2023-02-23T01:17:20;94623.59;;;7.03;80.07
11347;BME280;5728;42.722;23.258;2023-02-23T01:19:47;94622.84;;;6.78;80.83
11347;BME280;5728;42.722;23.258;2023-02-23T01:22:13;94617.66;;;6.89;80.74
11347;BME280;5728;42.722;23.258;2023-02-23T01:24:40;94615.88;;;7.04;79.92
11347;BME280;5728;42.722;23.258;2023-02-23T01:27:07;94610.66;;;7.17;79.78
11347;BME280;5728;42.722;23.258;2023-02-23T01:29:35;94603.97;;;6.72;80.93
11347;BME280;5728;42.722;23.258;2023-02-23T01:32:02;94606.47;;;6.90;80.78
11347;BME280;5728;42.722;23.258;2023-02-23T01:34:29;94626.19;;;7.01;79.91
11347;BME280;5728;42.722;23.258;2023-02-23T01:36:57;94609.75;;;7.21;79.41
11347;BME280;5728;42.722;23.258;2023-02-23T01:39:23;94614.09;;;7.13;79.79
11347;BME280;5728;42.722;23.258;2023-02-23T01:41:50;94613.13;;;7.35;78.61
11347;BME280;5728;42.722;23.258;2023-02-23T01:47:24;94619.06;;;7.43;76.92
11347;BME280;5728;42.722;23.258;2023-02-23T01:49:51;94617.31;;;7.51;77.05
11347;BME280;5728;42.722;23.258;2023-02-23T01:52:18;94615.53;;;7.59;77.16
11347;BME280;5728;42.722;23.258;2023-02-23T01:54:48;94610.31;;;7.72;75.66
11347;BME280;5728;42.722;23.258;2023-02-23T01:57:19;94607.88;;;7.45;76.29
11347;BME280;5728;42.722;23.258;2023-02-23T01:59:50;94610.63;;;7.15;78.07
11347;BME280;5728;42.722;23.258;2023-02-23T02:02:18;94614.13;;;7.06;79.42
11347;BME280;5728;42.722;23.258;2023-02-23T02:04:48;94619.28;;;7.05;78.84
11347;BME280;5728;42.722;23.258;2023-02-23T02:07:20;94604.63;;;7.13;78.31
11347;BME280;5728;42.722;23.258;2023-02-23T02:09:50;94604.56;;;7.27;77.48
11347;BME280;5728;42.722;23.258;2023-02-23T02:12:51;94608.94;;;7.13;77.54
11347;BME280;5728;42.722;23.258;2023-02-23T02:15:21;94611.59;;;6.97;77.87
11347;BME280;5728;42.722;23.258;2023-02-23T02:17:57;94597.03;;;6.87;78.62
11347;BME280;5728;42.722;23.258;2023-02-23T02:26:26;94613.28;;;7.06;77.46
11347;BME280;5728;42.722;23.258;2023-02-23T02:32:36;94620.16;;;7.07;77.09
11347;BME280;5728;42.722;23.258;2023-02-23T02:35:45;94609.81;;;7.10;76.53
11347;BME280;5728;42.722;23.258;2023-02-23T02:38:30;94604.63;;;7.13;76.41
11347;BME280;5728;42.722;23.258;2023-02-23T02:41:02;94606.41;;;7.00;76.44
11347;BME280;5728;42.722;23.258;2023-02-23T02:43:37;94607.22;;;7.15;76.67
11347;BME280;5728;42.722;23.258;2023-02-23T02:46:13;94586.63;;;7.02;76.52
11347;BME280;5728;42.722;23.258;2023-02-23T02:48:46;94609.81;;;7.12;76.75
11347;BME280;5728;42.722;23.258;2023-02-23T02:51:21;94608.09;;;7.07;76.45
11347;BME280;5728;42.722;23.258;2023-02-23T02:53:57;94597.81;;;7.04;75.91
11347;BME280;5728;42.722;23.258;2023-02-23T02:56:31;94605.50;;;7.11;76.29
11347;BME280;5728;42.722;23.258;2023-02-23T02:59:05;94605.50;;;7.17;75.68
11347;BME280;5728;42.722;23.258;2023-02-23T03:01:46;94602.09;;;7.05;75.95
11347;BME280;5728;42.722;23.258;2023-02-23T03:04:30;94603.84;;;7.03;75.93
11347;BME280;5728;42.722;23.258;2023-02-23T03:07:19;94606.41;;;7.00;75.73
11347;BME280;5728;42.722;23.258;2023-02-23T03:10:11;94609.88;;;6.93;76.29
11347;BME280;5728;42.722;23.258;2023-02-23T03:13:07;94608.19;;;6.91;76.04
11347;BME280;5728;42.722;23.258;2023-02-23T03:15:59;94607.31;;;6.90;76.36
11347;BME280;5728;42.722;23.258;2023-02-23T03:19:03;94603.03;;;6.88;76.37
11347;BME280;5728;42.722;23.258;2023-02-23T03:21:53;94612.47;;;6.87;76.77
11347;BME280;5728;42.722;23.258;2023-02-23T03:24:43;94614.28;;;6.70;76.89
11347;BME280;5728;42.722;23.258;2023-02-23T03:27:41;94617.75;;;6.60;77.51
11347;BME280;5728;42.722;23.258;2023-02-23T03:30:29;94618.56;;;6.73;77.38
11347;BME280;5728;42.722;23.258;2023-02-23T03:33:24;94627.22;;;6.51;78.09
11347;BME280;5728;42.722;23.258;2023-02-23T03:36:16;94617.75;;;6.60;78.33
11347;BME280;5728;42.722;23.258;2023-02-23T03:39:06;94621.19;;;6.59;78.14
11347;BME280;5728;42.722;23.258;2023-02-23T03:41:55;94628.97;;;6.38;78.27
11347;BME280;5728;42.722;23.258;2023-02-23T03:44:44;94635.00;;;6.16;79.59
11347;BME280;5728;42.722;23.258;2023-02-23T03:47:33;94637.56;;;6.25;79.82
11347;BME280;5728;42.722;23.258;2023-02-23T03:50:23;94635.00;;;6.34;79.28
11347;BME280;5728;42.722;23.258;2023-02-23T03:53:10;94650.41;;;6.48;78.64
11347;BME280;5728;42.722;23.258;2023-02-23T03:55:57;94638.44;;;6.24;79.42
11347;BME280;5728;42.722;23.258;2023-02-23T03:58:45;94642.72;;;6.10;79.62
11347;BME280;5728;42.722;23.258;2023-02-23T04:01:32;94638.44;;;5.89;81.12
11347;BME280;5728;42.722;23.258;2023-02-23T04:04:19;94633.25;;;5.81;80.97
11347;BME280;5728;42.722;23.258;2023-02-23T04:07:06;94633.25;;;5.77;81.55
11347;BME280;5728;42.722;23.258;2023-02-23T04:09:51;94647.63;;;4.84;84.94
11347;BME280;5728;42.722;23.258;2023-02-23T04:12:39;94642.38;;;4.65;86.18
11347;BME280;5728;42.722;23.258;2023-02-23T04:15:32;94646.44;;;4.20;87.81
11347;BME280;5728;42.722;23.258;2023-02-23T04:18:02;94618.88;;;3.92;89.42
11347;BME280;5728;42.722;23.258;2023-02-23T04:20:29;94630.16;;;4.20;89.26
11347;BME280;5728;42.722;23.258;2023-02-23T04:22:56;94635.41;;;4.41;88.44
11347;BME280;5728;42.722;23.258;2023-02-23T04:25:23;94640.31;;;4.02;88.38
11347;BME280;5728;42.722;23.258;2023-02-23T04:27:51;94631.66;;;3.91;89.33
11347;BME280;5728;42.722;23.258;2023-02-23T04:30:18;94646.91;;;3.69;91.90
11347;BME280;5728;42.722;23.258;2023-02-23T04:32:49;94635.72;;;3.60;92.50
11347;BME280;5728;42.722;23.258;2023-02-23T04:35:17;94630.38;;;3.40;93.21
11347;BME280;5728;42.722;23.258;2023-02-23T04:37:44;94647.38;;;3.31;94.69
11347;BME280;5728;42.722;23.258;2023-02-23T04:40:12;94647.53;;;3.46;95.14
11347;BME280;5728;42.722;23.258;2023-02-23T04:42:39;94644.16;;;3.50;95.85
11347;BME280;5728;42.722;23.258;2023-02-23T04:45:07;94659.63;;;3.59;95.07
11347;BME280;5728;42.722;23.258;2023-02-23T04:47:34;94646.22;;;3.93;94.36
11347;BME280;5728;42.722;23.258;2023-02-23T04:50:01;94641.13;;;3.99;92.75
11347;BME280;5728;42.722;23.258;2023-02-23T04:52:30;94644.38;;;3.78;93.21
11347;BME280;5728;42.722;23.258;2023-02-23T04:54:57;94647.81;;;3.79;93.21
11347;BME280;5728;42.722;23.258;2023-02-23T04:57:23;94639.50;;;4.07;92.61
11347;BME280;5728;42.722;23.258;2023-02-23T04:59:51;94639.63;;;4.28;92.42
11347;BME280;5728;42.722;23.258;2023-02-23T05:02:18;94598.13;;;3.63;93.03
11347;BME280;5728;42.722;23.258;2023-02-23T05:04:44;94645.50;;;4.09;93.22
11347;BME280;5728;42.722;23.258;2023-02-23T05:07:11;94643.16;;;4.45;92.27
11347;BME280;5728;42.722;23.258;2023-02-23T05:09:39;94636.41;;;4.67;91.36
11347;BME280;5728;42.722;23.258;2023-02-23T05:12:06;94643.28;;;4.79;89.90
11347;BME280;5728;42.722;23.258;2023-02-23T05:14:33;94647.69;;;5.01;89.16
11347;BME280;5728;42.722;23.258;2023-02-23T05:17:00;94646.88;;;5.17;88.12
11347;BME280;5728;42.722;23.258;2023-02-23T05:19:26;94641.78;;;5.32;86.61
11347;BME280;5728;42.722;23.258;2023-02-23T05:21:53;94639.25;;;5.50;84.34
11347;BME280;5728;42.722;23.258;2023-02-23T05:24:20;94646.94;;;5.47;83.74
11347;BME280;5728;42.722;23.258;2023-02-23T05:26:48;94656.38;;;5.48;83.01
11347;BME280;5728;42.722;23.258;2023-02-23T05:29:15;94665.78;;;5.46;83.72
11347;BME280;5728;42.722;23.258;2023-02-23T05:31:42;94652.06;;;5.44;83.25
11347;BME280;5728;42.722;23.258;2023-02-23T05:34:08;94653.84;;;5.63;82.35
11347;BME280;5728;42.722;23.258;2023-02-23T05:36:36;94660.69;;;5.79;81.40
11347;BME280;5728;42.722;23.258;2023-02-23T05:39:03;94660.69;;;5.76;80.76
11347;BME280;5728;42.722;23.258;2023-02-23T05:41:30;94667.56;;;5.76;80.29
11347;BME280;5728;42.722;23.258;2023-02-23T05:43:58;94678.72;;;5.73;80.91
11347;BME280;5728;42.722;23.258;2023-02-23T05:46:26;94680.41;;;5.70;80.97
11347;BME280;5728;42.722;23.258;2023-02-23T05:48:56;94685.59;;;5.84;80.44
11347;BME280;5728;42.722;23.258;2023-02-23T05:51:24;94688.16;;;5.76;80.96
11347;BME280;5728;42.722;23.258;2023-02-23T05:53:50;94664.13;;;5.81;80.27
11347;BME280;5728;42.722;23.258;2023-02-23T05:56:17;94692.47;;;5.97;79.68
11347;BME280;5728;42.722;23.258;2023-02-23T05:58:46;94689.91;;;5.97;79.79
11347;BME280;5728;42.722;23.258;2023-02-23T06:01:14;94696.78;;;6.13;79.55
11347;BME280;5728;42.722;23.258;2023-02-23T06:03:42;94653.88;;;6.03;79.26
11347;BME280;5728;42.722;23.258;2023-02-23T06:06:09;94695.91;;;6.32;80.20
11347;BME280;5728;42.722;23.258;2023-02-23T06:08:36;94698.47;;;6.38;80.20
11347;BME280;5728;42.722;23.258;2023-02-23T06:11:03;94696.75;;;6.40;80.02
11347;BME280;5728;42.722;23.258;2023-02-23T06:13:30;94693.31;;;6.47;79.36
11347;BME280;5728;42.722;23.258;2023-02-23T06:15:57;94701.03;;;6.58;79.32
11347;BME280;5728;42.722;23.258;2023-02-23T06:18:26;94703.59;;;6.70;78.90
11347;BME280;5728;42.722;23.258;2023-02-23T06:20:53;94713.84;;;6.92;77.66
11347;BME280;5728;42.722;23.258;2023-02-23T06:23:20;94712.94;;;7.02;77.15
11347;BME280;5728;42.722;23.258;2023-02-23T06:25:47;94707.78;;;7.08;77.07
11347;BME280;5728;42.722;23.258;2023-02-23T06:28:14;94712.91;;;7.16;76.32
11347;BME280;5728;42.722;23.258;2023-02-23T06:30:41;94710.25;;;7.33;76.34
11347;BME280;5728;42.722;23.258;2023-02-23T06:33:08;94709.28;;;7.61;75.20
11347;BME280;5728;42.722;23.258;2023-02-23T06:35:36;94718.59;;;7.86;74.30
11347;BME280;5728;42.722;23.258;2023-02-23T06:38:03;94720.31;;;7.89;73.61
11347;BME280;5728;42.722;23.258;2023-02-23T06:40:30;94724.56;;;7.94;73.38
11347;BME280;5728;42.722;23.258;2023-02-23T06:42:57;94713.34;;;8.01;73.02
11347;BME280;5728;42.722;23.258;2023-02-23T06:45:24;94725.44;;;7.98;72.64
11347;BME280;5728;42.722;23.258;2023-02-23T06:47:51;94719.19;;;8.30;72.17
11347;BME280;5728;42.722;23.258;2023-02-23T06:50:18;94724.31;;;8.33;72.76
11347;BME280;5728;42.722;23.258;2023-02-23T06:52:47;94727.56;;;8.60;71.71
11347;BME280;5728;42.722;23.258;2023-02-23T06:55:14;94721.81;;;8.18;71.21
11347;BME280;5728;42.722;23.258;2023-02-23T06:57:41;94692.47;;;8.34;70.84
11347;BME280;5728;42.722;23.258;2023-02-23T07:00:09;94730.88;;;8.72;72.41
11347;BME280;5728;42.722;23.258;2023-02-23T07:02:39;94726.59;;;8.70;71.96
11347;BME280;5728;42.722;23.258;2023-02-23T07:05:07;94729.88;;;8.87;71.35
11347;BME280;5728;42.722;23.258;2023-02-23T07:07:34;94720.97;;;9.15;70.09
11347;BME280;5728;42.722;23.258;2023-02-23T07:10:02;94734.75;;;9.17;70.99
11347;BME280;5728;42.722;23.258;2023-02-23T07:12:29;94724.44;;;9.13;70.78
11347;BME280;5728;42.722;23.258;2023-02-23T07:14:56;94726.91;;;9.26;71.76
11347;BME280;5728;42.722;23.258;2023-02-23T07:17:23;94724.84;;;9.54;70.11
11347;BME280;5728;42.722;23.258;2023-02-23T07:19:50;94723.09;;;9.54;69.16
11347;BME280;5728;42.722;23.258;2023-02-23T07:22:17;94717.47;;;9.89;68.56
11347;BME280;5728;42.722;23.258;2023-02-23T07:24:43;94685.63;;;9.83;68.15
11347;BME280;5728;42.722;23.258;2023-02-23T07:27:11;94715.47;;;10.09;67.82
11347;BME280;5728;42.722;23.258;2023-02-23T07:29:38;94697.25;;;10.15;67.54
11347;BME280;5728;42.722;23.258;2023-02-23T07:32:05;94713.91;;;9.96;66.86
11347;BME280;5728;42.722;23.258;2023-02-23T07:34:32;94713.81;;;10.02;67.76
11347;BME280;5728;42.722;23.258;2023-02-23T07:36:58;94712.16;;;9.98;68.25
11347;BME280;5728;42.722;23.258;2023-02-23T07:39:25;94710.91;;;10.25;66.75
11347;BME280;5728;42.722;23.258;2023-02-23T07:41:52;94683.19;;;10.32;66.68
11347;BME280;5728;42.722;23.258;2023-02-23T07:44:20;94710.34;;;10.60;65.86
11347;BME280;5728;42.722;23.258;2023-02-23T07:46:47;94715.22;;;10.79;65.49
11347;BME280;5728;42.722;23.258;2023-02-23T07:49:15;94704.78;;;10.82;64.83
11347;BME280;5728;42.722;23.258;2023-02-23T07:51:41;94725.41;;;11.37;64.75
11347;BME280;5728;42.722;23.258;2023-02-23T07:54:08;94684.63;;;11.42;63.96
11347;BME280;5728;42.722;23.258;2023-02-23T07:56:35;94706.03;;;11.96;62.06
11347;BME280;5728;42.722;23.258;2023-02-23T07:59:02;94689.38;;;11.65;60.16
11347;BME280;5728;42.722;23.258;2023-02-23T08:01:30;94701.03;;;11.87;64.23
11347;BME280;5728;42.722;23.258;2023-02-23T08:03:57;94705.28;;;12.30;65.44
11347;BME280;5728;42.722;23.258;2023-02-23T08:06:24;94701.13;;;12.21;62.13
11347;BME280;5728;42.722;23.258;2023-02-23T08:08:51;94681.47;;;12.09;60.34
11347;BME280;5728;42.722;23.258;2023-02-23T08:11:17;94696.94;;;12.15;59.92
11347;BME280;5728;42.722;23.258;2023-02-23T08:13:45;94698.34;;;12.30;58.57
11347;BME280;5728;42.722;23.258;2023-02-23T08:16:11;94700.78;;;12.36;57.56
11347;BME280;5728;42.722;23.258;2023-02-23T08:18:42;94696.59;;;12.31;58.31
11347;BME280;5728;42.722;23.258;2023-02-23T08:21:09;94683.28;;;12.78;57.65
11347;BME280;5728;42.722;23.258;2023-02-23T08:23:36;94690.28;;;13.10;56.71
11347;BME280;5728;42.722;23.258;2023-02-23T08:26:03;94699.69;;;13.15;57.27
11347;BME280;5728;42.722;23.258;2023-02-23T08:28:30;94683.59;;;13.33;55.69
11347;BME280;5728;42.722;23.258;2023-02-23T08:30:57;94704.22;;;13.39;55.58
11347;BME280;5728;42.722;23.258;2023-02-23T08:33:24;94698.94;;;13.73;54.86
11347;BME280;5728;42.722;23.258;2023-02-23T08:35:52;94683.16;;;13.78;53.91
11347;BME280;5728;42.722;23.258;2023-02-23T08:38:19;94706.28;;;14.19;53.27
11347;BME280;5728;42.722;23.258;2023-02-23T08:40:46;94698.94;;;14.02;54.90
11347;BME280;5728;42.722;23.258;2023-02-23T08:43:13;94689.09;;;14.41;53.26
11347;BME280;5728;42.722;23.258;2023-02-23T08:45:39;94697.75;;;14.69;53.54
11347;BME280;5728;42.722;23.258;2023-02-23T08:48:06;94691.91;;;14.61;51.04
11347;BME280;5728;42.722;23.258;2023-02-23T08:50:33;94693.97;;;14.52;51.75
11347;BME280;5728;42.722;23.258;2023-02-23T08:53:02;94697.28;;;14.28;52.29
11347;BME280;5728;42.722;23.258;2023-02-23T08:55:29;94695.19;;;13.53;53.73
11347;BME280;5728;42.722;23.258;2023-02-23T08:57:57;94695.22;;;14.11;52.70
11347;BME280;5728;42.722;23.258;2023-02-23T09:00:24;94693.25;;;14.18;51.17
11347;BME280;5728;42.722;23.258;2023-02-23T09:02:51;94699.16;;;13.66;52.50
11347;BME280;5728;42.722;23.258;2023-02-23T09:05:18;94692.88;;;14.31;55.11
11347;BME280;5728;42.722;23.258;2023-02-23T09:07:45;94682.47;;;15.34;49.65
11347;BME280;5728;42.722;23.258;2023-02-23T09:10:16;94690.34;;;15.82;48.75
11347;BME280;5728;42.722;23.258;2023-02-23T09:12:45;94688.22;;;15.92;47.19
11347;BME280;5728;42.722;23.258;2023-02-23T09:15:12;94685.88;;;16.31;47.15
11347;BME280;5728;42.722;23.258;2023-02-23T09:17:38;94687.50;;;16.78;45.91
11347;BME280;5728;42.722;23.258;2023-02-23T09:20:10;94688.59;;;16.73;45.67
11347;BME280;5728;42.722;23.258;2023-02-23T09:22:38;94688.78;;;17.10;45.24
11347;BME280;5728;42.722;23.258;2023-02-23T09:25:05;94669.09;;;17.42;44.51
11347;BME280;5728;42.722;23.258;2023-02-23T09:27:34;94678.06;;;16.94;44.25
11347;BME280;5728;42.722;23.258;2023-02-23T09:30:01;94681.38;;;17.40;48.23
11347;BME280;5728;42.722;23.258;2023-02-23T09:32:29;94693.38;;;17.25;44.91
11347;BME280;5728;42.722;23.258;2023-02-23T09:34:55;94684.53;;;17.48;44.35
11347;BME280;5728;42.722;23.258;2023-02-23T09:37:22;94680.13;;;17.89;46.33
11347;BME280;5728;42.722;23.258;2023-02-23T09:39:49;94702.13;;;18.23;41.97
11347;BME280;5728;42.722;23.258;2023-02-23T09:42:24;94688.50;;;18.15;41.78
11347;BME280;5728;42.722;23.258;2023-02-23T09:45:17;94673.47;;;18.37;40.41
11347;BME280;5728;42.722;23.258;2023-02-23T09:47:56;94672.97;;;18.67;40.66
11347;BME280;5728;42.722;23.258;2023-02-23T09:50:29;94675.31;;;18.17;40.09
11347;BME280;5728;42.722;23.258;2023-02-23T09:52:59;94681.13;;;17.05;42.32
11347;BME280;5728;42.722;23.258;2023-02-23T09:55:28;94671.94;;;17.76;42.00
11347;BME280;5728;42.722;23.258;2023-02-23T09:57:57;94669.09;;;18.19;40.67
11347;BME280;5728;42.722;23.258;2023-02-23T10:00:30;94665.13;;;18.84;41.05
11347;BME280;5728;42.722;23.258;2023-02-23T10:03:13;94656.22;;;19.39;40.55
11347;BME280;5728;42.722;23.258;2023-02-23T10:05:45;94671.19;;;19.20;38.96
11347;BME280;5728;42.722;23.258;2023-02-23T10:08:31;94670.56;;;18.98;38.15
11347;BME280;5728;42.722;23.258;2023-02-23T10:11:08;94659.81;;;18.12;40.34
11347;BME280;5728;42.722;23.258;2023-02-23T10:13:43;94651.00;;;17.56;41.52
11347;BME280;5728;42.722;23.258;2023-02-23T10:16:20;94627.53;;;17.33;42.04
11347;BME280;5728;42.722;23.258;2023-02-23T10:18:52;94662.75;;;18.23;40.86
11347;BME280;5728;42.722;23.258;2023-02-23T10:21:29;94660.84;;;18.64;39.74
11347;BME280;5728;42.722;23.258;2023-02-23T10:24:04;94648.78;;;19.30;38.65
11347;BME280;5728;42.722;23.258;2023-02-23T10:26:38;94651.69;;;19.24;38.43
11347;BME280;5728;42.722;23.258;2023-02-23T10:29:18;94636.03;;;19.40;40.04
11347;BME280;5728;42.722;23.258;2023-02-23T10:31:50;94618.94;;;19.97;37.63
11347;BME280;5728;42.722;23.258;2023-02-23T10:34:20;94636.34;;;20.63;39.09
11347;BME280;5728;42.722;23.258;2023-02-23T10:36:50;94639.44;;;20.85;35.42
11347;BME280;5728;42.722;23.258;2023-02-23T10:39:18;94626.56;;;19.01;36.71
11347;BME280;5728;42.722;23.258;2023-02-23T10:41:45;94627.59;;;18.63;37.34
11347;BME280;5728;42.722;23.258;2023-02-23T10:44:17;94632.53;;;18.52;38.56
11347;BME280;5728;42.722;23.258;2023-02-23T10:46:50;94624.00;;;19.68;37.58
11347;BME280;5728;42.722;23.258;2023-02-23T10:49:20;94625.13;;;20.44;36.00
11347;BME280;5728;42.722;23.258;2023-02-23T10:51:48;94619.06;;;21.19;34.29
11347;BME280;5728;42.722;23.258;2023-02-23T10:54:37;94616.97;;;21.10;33.79
11347;BME280;5728;42.722;23.258;2023-02-23T10:57:08;94609.63;;;21.15;34.04
11347;BME280;5728;42.722;23.258;2023-02-23T10:59:40;94599.59;;;21.21;35.57
11347;BME280;5728;42.722;23.258;2023-02-23T11:02:22;94580.28;;;21.35;33.84
11347;BME280;5728;42.722;23.258;2023-02-23T11:04:51;94600.88;;;22.00;32.72
11347;BME280;5728;42.722;23.258;2023-02-23T11:07:21;94579.97;;;21.97;32.81
11347;BME280;5728;42.722;23.258;2023-02-23T11:09:48;94596.44;;;21.15;33.72
11347;BME280;5728;42.722;23.258;2023-02-23T11:12:18;94614.44;;;20.92;34.32
11347;BME280;5728;42.722;23.258;2023-02-23T11:14:46;94594.66;;;20.99;33.77
11347;BME280;5728;42.722;23.258;2023-02-23T11:17:28;94589.78;;;20.93;34.28
11347;BME280;5728;42.722;23.258;2023-02-23T11:20:04;94570.31;;;21.40;34.26
11347;BME280;5728;42.722;23.258;2023-02-23T11:22:34;94579.00;;;21.84;32.53
11347;BME280;5728;42.722;23.258;2023-02-23T11:25:10;94576.16;;;22.30;32.47
11347;BME280;5728;42.722;23.258;2023-02-23T11:27:44;94574.06;;;21.36;32.57
11347;BME280;5728;42.722;23.258;2023-02-23T11:30:19;94561.25;;;21.30;33.76
11347;BME280;5728;42.722;23.258;2023-02-23T11:32:52;94570.44;;;21.67;32.75
11347;BME280;5728;42.722;23.258;2023-02-23T11:35:29;94571.84;;;21.72;33.00
11347;BME280;5728;42.722;23.258;2023-02-23T11:37:56;94562.69;;;21.63;33.39
11347;BME280;5728;42.722;23.258;2023-02-23T11:40:24;94560.81;;;21.66;32.73
11347;BME280;5728;42.722;23.258;2023-02-23T11:42:53;94562.31;;;21.84;32.53
11347;BME280;5728;42.722;23.258;2023-02-23T11:45:22;94537.53;;;21.86;32.26
11347;BME280;5728;42.722;23.258;2023-02-23T11:47:53;94550.91;;;21.55;32.92
11347;BME280;5728;42.722;23.258;2023-02-23T11:50:24;94558.06;;;21.81;32.81
11347;BME280;5728;42.722;23.258;2023-02-23T11:52:56;94554.41;;;22.39;33.69
11347;BME280;5728;42.722;23.258;2023-02-23T11:55:26;94555.78;;;22.85;31.59
11347;BME280;5728;42.722;23.258;2023-02-23T11:58:07;94550.53;;;22.71;31.08
11347;BME280;5728;42.722;23.258;2023-02-23T12:00:34;94550.59;;;22.30;31.52
11347;BME280;5728;42.722;23.258;2023-02-23T12:03:03;94554.94;;;22.17;31.60
11347;BME280;5728;42.722;23.258;2023-02-23T12:05:31;94547.50;;;21.81;31.60
11347;BME280;5728;42.722;23.258;2023-02-23T12:08:01;94542.25;;;21.53;32.07
11347;BME280;5728;42.722;23.258;2023-02-23T12:10:35;94536.50;;;21.46;33.42
11347;BME280;5728;42.722;23.258;2023-02-23T12:13:12;94552.31;;;22.17;31.40
11347;BME280;5728;42.722;23.258;2023-02-23T12:15:48;94532.59;;;22.22;31.41
11347;BME280;5728;42.722;23.258;2023-02-23T12:18:35;94540.81;;;22.71;32.70
11347;BME280;5728;42.722;23.258;2023-02-23T12:21:14;94536.78;;;22.66;30.58
11347;BME280;5728;42.722;23.258;2023-02-23T12:23:45;94545.44;;;22.14;31.07
11347;BME280;5728;42.722;23.258;2023-02-23T12:26:16;94533.16;;;22.13;31.71
11347;BME280;5728;42.722;23.258;2023-02-23T12:28:49;94529.59;;;21.30;32.95
11347;BME280;5728;42.722;23.258;2023-02-23T12:31:27;94513.63;;;20.59;34.00
11347;BME280;5728;42.722;23.258;2023-02-23T12:34:01;94522.31;;;20.75;33.87
11347;BME280;5728;42.722;23.258;2023-02-23T12:36:36;94531.22;;;20.59;34.01
11347;BME280;5728;42.722;23.258;2023-02-23T12:39:13;94527.13;;;20.53;34.60
11347;BME280;5728;42.722;23.258;2023-02-23T12:41:44;94524.94;;;20.75;34.36
11347;BME280;5728;42.722;23.258;2023-02-23T12:44:23;94533.47;;;20.94;34.08
11347;BME280;5728;42.722;23.258;2023-02-23T12:47:00;94533.59;;;20.77;33.89
11347;BME280;5728;42.722;23.258;2023-02-23T12:49:36;94510.63;;;20.79;34.62
11347;BME280;5728;42.722;23.258;2023-02-23T12:52:10;94505.38;;;20.79;33.55
11347;BME280;5728;42.722;23.258;2023-02-23T12:54:39;94507.50;;;21.02;33.02
11347;BME280;5728;42.722;23.258;2023-02-23T12:57:15;94525.50;;;20.66;33.80
11347;BME280;5728;42.722;23.258;2023-02-23T13:00:14;94518.63;;;20.64;34.19
11347;BME280;5728;42.722;23.258;2023-02-23T13:03:10;94498.88;;;20.41;34.35
11347;BME280;5728;42.722;23.258;2023-02-23T13:05:44;94514.44;;;20.30;34.57
11347;BME280;5728;42.722;23.258;2023-02-23T13:08:19;94505.97;;;20.55;35.85
11347;BME280;5728;42.722;23.258;2023-02-23T13:10:54;94510.16;;;20.12;34.49
11347;BME280;5728;42.722;23.258;2023-02-23T13:13:33;94525.06;;;20.28;35.70
11347;BME280;5728;42.722;23.258;2023-02-23T13:16:08;94521.66;;;20.11;34.69
11347;BME280;5728;42.722;23.258;2023-02-23T13:18:39;94511.28;;;20.39;34.78
11347;BME280;5728;42.722;23.258;2023-02-23T13:21:15;94510.16;;;20.12;33.83
11347;BME280;5728;42.722;23.258;2023-02-23T13:23:52;94513.84;;;19.94;34.39
11347;BME280;5728;42.722;23.258;2023-02-23T13:26:27;94501.78;;;20.05;34.39
11347;BME280;5728;42.722;23.258;2023-02-23T13:29:02;94507.91;;;20.06;35.23
11347;BME280;5728;42.722;23.258;2023-02-23T13:31:34;94499.16;;;19.90;34.56
11347;BME280;5728;42.722;23.258;2023-02-23T13:34:03;94516.97;;;20.00;35.13
11347;BME280;5728;42.722;23.258;2023-02-23T13:36:33;94502.03;;;20.01;35.40
11347;BME280;5728;42.722;23.258;2023-02-23T13:39:26;94501.19;;;19.85;35.86
11347;BME280;5728;42.722;23.258;2023-02-23T13:42:14;94502.44;;;19.62;35.91